createdAt,value
2018-01-15T00:01:45.379Z,82.91
2018-01-15T00:04:12.958Z,82.86
2018-01-15T00:06:40.538Z,83.45
2018-01-15T00:09:08.152Z,83.61
2018-01-15T00:11:35.734Z,83.37
2018-01-15T00:14:03.365Z,83.32
2018-01-15T00:16:30.995Z,83.58
2018-01-15T00:18:58.604Z,83.20
2018-01-15T00:21:26.196Z,83.16
2018-01-15T00:23:53.840Z,83.55
2018-01-15T00:26:21.416Z,83.97
2018-01-15T00:28:48.997Z,84.58
2018-01-15T00:31:16.643Z,83.90
2018-01-15T00:33:44.269Z,83.80
2018-01-15T00:36:11.859Z,85.07
2018-01-15T00:38:39.454Z,85.09
2018-01-15T00:41:07.051Z,85.30
2018-01-15T00:43:34.650Z,85.15
2018-01-15T00:46:02.374Z,85.34
2018-01-15T00:48:30.258Z,85.79
2018-01-15T00:50:57.850Z,86.04
2018-01-15T00:53:25.435Z,86.39
2018-01-15T00:55:53.007Z,86.66
2018-01-15T00:58:20.562Z,87.55
2018-01-15T01:00:48.188Z,87.43
2018-01-15T01:03:15.855Z,87.62
2018-01-15T01:05:43.444Z,87.73
2018-01-15T01:08:11.058Z,87.95
2018-01-15T01:10:38.633Z,87.70
2018-01-15T01:13:06.346Z,87.58
2018-01-15T01:15:33.951Z,87.81
2018-01-15T01:18:01.506Z,87.82
2018-01-15T01:20:29.075Z,87.97
2018-01-15T01:22:56.679Z,87.67
2018-01-15T01:25:24.267Z,87.33
2018-01-15T01:27:51.903Z,87.89
2018-01-15T01:30:19.701Z,87.56
2018-01-15T01:32:47.273Z,87.00
2018-01-15T01:35:14.836Z,86.62
2018-01-15T01:37:42.589Z,86.08
2018-01-15T01:40:10.181Z,86.40
2018-01-15T01:42:37.768Z,86.46
2018-01-15T01:45:05.484Z,86.30
2018-01-15T01:47:33.065Z,86.42
2018-01-15T01:50:00.650Z,86.85
2018-01-15T01:52:28.271Z,86.94
2018-01-15T01:54:55.931Z,87.17
2018-01-15T01:57:23.517Z,87.81
2018-01-15T01:59:51.149Z,87.96
2018-01-15T02:02:18.865Z,88.02
2018-01-15T02:04:46.457Z,88.17
2018-01-15T02:07:14.087Z,88.21
2018-01-15T02:09:41.671Z,88.24
2018-01-15T02:12:09.243Z,88.10
2018-01-15T02:14:36.855Z,88.38
2018-01-15T02:17:04.427Z,88.04
2018-01-15T02:19:32.012Z,87.30
2018-01-15T02:21:59.636Z,87.40
2018-01-15T02:24:27.223Z,87.52
2018-01-15T02:26:54.810Z,87.55
2018-01-15T02:29:22.431Z,87.71
2018-01-15T02:31:50.002Z,88.27
2018-01-15T02:34:17.567Z,88.13
2018-01-15T02:36:45.176Z,87.95
2018-01-15T02:39:12.757Z,87.43
2018-01-15T02:41:40.349Z,87.14
2018-01-15T02:44:07.974Z,86.81
2018-01-15T02:46:35.543Z,86.45
2018-01-15T02:49:03.145Z,86.67
2018-01-15T02:51:30.774Z,86.53
2018-01-15T02:53:58.356Z,86.42
2018-01-15T02:56:25.924Z,86.68
2018-01-15T02:58:53.545Z,86.64
2018-01-15T03:01:21.109Z,86.97
2018-01-15T03:03:48.682Z,87.09
2018-01-15T03:06:16.289Z,87.10
2018-01-15T03:08:43.868Z,87.30
2018-01-15T03:11:11.443Z,87.91
2018-01-15T03:13:39.040Z,87.68
2018-01-15T03:16:06.607Z,87.67
2018-01-15T03:18:34.189Z,87.22
2018-01-15T03:21:01.828Z,86.95
2018-01-15T03:23:29.423Z,87.30
2018-01-15T03:25:56.980Z,86.60
2018-01-15T03:28:24.604Z,86.72
2018-01-15T03:30:52.200Z,87.28
2018-01-15T03:33:19.771Z,87.76
2018-01-15T03:35:47.380Z,87.96
2018-01-15T03:38:14.985Z,87.74
2018-01-15T03:40:42.558Z,87.25
2018-01-15T03:43:10.188Z,87.42
2018-01-15T03:45:37.777Z,87.76
2018-01-15T03:48:05.377Z,87.44
2018-01-15T03:50:32.991Z,87.51
2018-01-15T03:53:00.555Z,87.32
2018-01-15T03:55:28.123Z,87.05
2018-01-15T03:57:55.730Z,86.85
2018-01-15T04:00:23.324Z,86.41
2018-01-15T04:02:50.894Z,86.04
2018-01-15T04:05:18.543Z,86.10
2018-01-15T04:07:46.115Z,86.31
2018-01-15T04:10:13.697Z,86.48
2018-01-15T04:12:41.321Z,86.70
2018-01-15T04:15:08.928Z,86.64
2018-01-15T04:17:36.490Z,86.61
2018-01-15T04:20:04.105Z,87.53
2018-01-15T04:22:31.662Z,86.85
2018-01-15T04:24:59.243Z,86.24
2018-01-15T04:27:26.856Z,86.20
2018-01-15T04:29:54.443Z,85.85
2018-01-15T04:32:22.037Z,85.51
2018-01-15T04:34:49.671Z,85.72
2018-01-15T04:37:17.303Z,86.01
2018-01-15T04:39:44.875Z,85.66
2018-01-15T04:42:12.554Z,85.44
2018-01-15T04:44:40.136Z,85.68
2018-01-15T04:47:07.738Z,85.74
2018-01-15T04:49:35.377Z,86.51
2018-01-15T04:52:02.961Z,86.55
2018-01-15T04:54:30.613Z,86.19
2018-01-15T04:56:58.232Z,86.17
2018-01-15T04:59:25.799Z,85.94
2018-01-15T05:01:53.386Z,85.75
2018-01-15T05:04:21.003Z,85.68
2018-01-15T05:06:48.573Z,85.76
2018-01-15T05:09:16.147Z,85.09
2018-01-15T05:11:43.761Z,85.51
2018-01-15T05:14:11.339Z,85.15
2018-01-15T05:16:38.948Z,85.50
2018-01-15T05:19:06.574Z,85.34
2018-01-15T05:21:34.142Z,85.67
2018-01-15T05:24:01.711Z,86.06
2018-01-15T05:26:29.312Z,86.11
2018-01-15T05:28:56.888Z,86.40
2018-01-15T05:31:24.675Z,86.83
2018-01-15T05:33:52.277Z,86.81
2018-01-15T05:36:19.998Z,86.92
2018-01-15T05:38:47.563Z,87.62
2018-01-15T05:41:15.162Z,87.64
2018-01-15T05:43:42.742Z,87.45
2018-01-15T05:46:10.314Z,87.27
2018-01-15T05:48:37.924Z,87.36
2018-01-15T05:51:05.513Z,87.66
2018-01-15T05:53:33.096Z,88.10
2018-01-15T05:56:00.724Z,88.07
2018-01-15T05:58:28.294Z,88.28
2018-01-15T06:00:55.871Z,88.86
2018-01-15T06:03:23.483Z,89.15
2018-01-15T06:05:51.073Z,88.15
2018-01-15T06:08:18.657Z,88.58
2018-01-15T06:10:46.281Z,88.19
2018-01-15T06:13:13.908Z,88.38
2018-01-15T06:15:41.519Z,87.40
2018-01-15T06:18:09.212Z,87.16
2018-01-15T06:20:36.805Z,87.52
2018-01-15T06:23:04.400Z,87.46
2018-01-15T06:25:32.019Z,87.48
2018-01-15T06:27:59.676Z,86.68
2018-01-15T06:30:27.267Z,85.73
2018-01-15T06:32:54.889Z,85.30
2018-01-15T06:35:22.472Z,85.30
2018-01-15T06:37:50.051Z,84.66
2018-01-15T06:40:17.672Z,83.41
2018-01-15T06:42:45.295Z,83.60
2018-01-15T06:45:12.867Z,86.12
2018-01-15T06:47:40.491Z,85.84
2018-01-15T06:50:08.051Z,88.39
2018-01-15T06:52:35.623Z,84.73
2018-01-15T06:55:03.240Z,88.04
2018-01-15T06:57:30.834Z,84.37
2018-01-15T06:59:58.410Z,82.21
2018-01-15T07:02:26.011Z,82.72
2018-01-15T07:04:53.645Z,82.62
2018-01-15T07:07:21.286Z,78.37
2018-01-15T07:09:48.891Z,77.57
2018-01-15T07:12:16.477Z,77.77
2018-01-15T07:14:44.055Z,79.16
2018-01-15T07:17:11.692Z,78.67
2018-01-15T07:19:39.252Z,78.21
2018-01-15T07:22:06.808Z,78.79
2018-01-15T07:24:34.411Z,78.35
2018-01-15T07:27:01.971Z,77.50
2018-01-15T07:29:29.535Z,77.56
2018-01-15T07:31:57.147Z,77.13
2018-01-15T07:34:24.731Z,77.66
2018-01-15T07:36:52.366Z,76.94
2018-01-15T07:39:19.970Z,76.44
2018-01-15T07:41:47.544Z,75.66
2018-01-15T07:44:15.102Z,75.94
2018-01-15T07:46:42.714Z,75.34
2018-01-15T07:49:10.308Z,74.92
2018-01-15T07:51:37.893Z,75.32
2018-01-15T07:54:05.517Z,75.16
2018-01-15T07:56:33.089Z,75.24
2018-01-15T07:59:00.677Z,75.22
2018-01-15T08:01:28.303Z,75.03
2018-01-15T08:03:55.895Z,73.91
2018-01-15T08:06:23.479Z,73.04
2018-01-15T08:08:51.141Z,72.30
2018-01-15T08:11:18.842Z,72.83
2018-01-15T08:13:46.434Z,72.83
2018-01-15T08:16:14.053Z,72.18
2018-01-15T08:18:41.650Z,72.18
2018-01-15T08:21:09.250Z,72.08
2018-01-15T08:23:36.871Z,71.39
2018-01-15T08:26:04.451Z,71.88
2018-01-15T08:28:32.025Z,73.08
2018-01-15T08:30:59.650Z,74.59
2018-01-15T08:33:27.259Z,74.94
2018-01-15T08:35:54.841Z,74.51
2018-01-15T08:38:22.451Z,73.96
2018-01-15T08:40:50.040Z,75.20
2018-01-15T08:43:17.654Z,74.58
2018-01-15T08:45:45.296Z,73.50
2018-01-15T08:48:12.898Z,72.59
2018-01-15T08:50:40.485Z,71.83
2018-01-15T08:53:08.097Z,72.32
2018-01-15T08:55:36.192Z,72.06
2018-01-15T08:58:03.772Z,72.34
2018-01-15T09:00:31.413Z,70.97
2018-01-15T09:02:58.988Z,70.69
2018-01-15T09:05:26.567Z,71.04
2018-01-15T09:07:54.194Z,71.02
2018-01-15T09:10:21.771Z,70.61
2018-01-15T09:12:49.343Z,71.42
2018-01-15T09:15:16.957Z,72.64
2018-01-15T09:17:44.544Z,72.83
2018-01-15T09:20:12.124Z,73.35
2018-01-15T09:22:39.766Z,73.78
2018-01-15T09:25:07.566Z,73.42
2018-01-15T09:27:35.192Z,73.05
2018-01-15T09:30:02.812Z,74.43
2018-01-15T09:32:30.401Z,74.56
2018-01-15T09:34:58.000Z,74.27
2018-01-15T09:37:25.626Z,73.67
2018-01-15T09:39:53.209Z,74.03
2018-01-15T09:42:20.798Z,74.13
2018-01-15T09:44:48.418Z,73.79
2018-01-15T09:47:16.005Z,74.94
2018-01-15T09:49:43.567Z,74.53
2018-01-15T09:52:11.174Z,74.66
2018-01-15T09:54:38.768Z,74.05
2018-01-15T09:57:06.337Z,73.52
2018-01-15T09:59:33.959Z,74.27
2018-01-15T10:02:01.561Z,74.05
2018-01-15T10:04:29.138Z,74.08
2018-01-15T10:06:56.827Z,73.89
2018-01-15T10:09:24.409Z,73.11
2018-01-15T10:11:51.986Z,72.13
2018-01-15T10:14:19.613Z,70.98
2018-01-15T10:16:47.195Z,71.72
2018-01-15T10:19:14.782Z,72.49
2018-01-15T10:21:42.397Z,73.09
2018-01-15T10:24:09.976Z,73.14
2018-01-15T10:26:37.530Z,71.92
2018-01-15T10:29:05.150Z,72.35
2018-01-15T10:31:32.727Z,72.35
2018-01-15T10:34:00.418Z,72.62
2018-01-15T10:36:28.032Z,73.09
2018-01-15T10:38:55.616Z,72.73
2018-01-15T10:41:23.189Z,73.99
2018-01-15T10:43:50.815Z,73.79
2018-01-15T10:46:18.416Z,74.52
2018-01-15T10:48:46.024Z,74.71
2018-01-15T10:51:13.654Z,74.69
2018-01-15T10:53:41.258Z,74.51
2018-01-15T10:56:08.862Z,74.17
2018-01-15T10:58:36.576Z,73.12
2018-01-15T11:01:09.691Z,73.99
2018-01-15T11:03:37.327Z,74.36
2018-01-15T11:06:04.921Z,74.46
2018-01-15T11:08:32.491Z,74.48
2018-01-15T11:11:00.115Z,75.04
2018-01-15T11:13:27.864Z,74.89
2018-01-15T11:15:55.478Z,74.24
2018-01-15T11:18:23.213Z,73.51
2018-01-15T11:20:50.727Z,73.38
2018-01-15T11:23:18.306Z,72.94
2018-01-15T11:25:45.939Z,71.68
2018-01-15T11:28:13.529Z,71.09
2018-01-15T11:30:41.096Z,70.20
2018-01-15T11:33:08.724Z,70.36
2018-01-15T11:35:37.188Z,71.48
2018-01-15T11:38:04.800Z,72.93
2018-01-15T11:40:32.440Z,73.22
2018-01-15T11:43:00.110Z,73.67
2018-01-15T11:45:27.695Z,72.43
2018-01-15T11:47:55.361Z,71.95
2018-01-15T11:50:22.953Z,72.54
2018-01-15T11:52:50.684Z,72.05
2018-01-15T11:55:18.349Z,73.85
2018-01-15T11:57:45.954Z,73.10
2018-01-15T12:00:13.534Z,73.08
2018-01-15T12:02:41.176Z,72.47
2018-01-15T12:05:08.763Z,72.02
2018-01-15T12:07:36.386Z,71.10
2018-01-15T12:10:04.032Z,71.16
2018-01-15T12:12:31.606Z,71.14
2018-01-15T12:14:59.243Z,71.02
2018-01-15T12:17:26.867Z,70.92
2018-01-15T12:19:54.482Z,72.07
2018-01-15T12:22:22.083Z,71.65
2018-01-15T12:24:49.721Z,71.35
2018-01-15T12:27:17.339Z,71.81
2018-01-15T12:29:44.963Z,71.97
2018-01-15T12:32:12.588Z,71.68
2018-01-15T12:34:40.271Z,72.50
2018-01-15T12:37:07.874Z,71.93
2018-01-15T12:39:36.372Z,71.74
2018-01-15T12:42:03.994Z,72.22
2018-01-15T12:44:31.675Z,72.40
2018-01-15T12:46:59.341Z,73.37
2018-01-15T12:49:26.900Z,72.81
2018-01-15T12:51:54.484Z,72.56
2018-01-15T12:54:22.118Z,71.49
2018-01-15T12:56:49.722Z,71.61
2018-01-15T12:59:17.316Z,70.32
2018-01-15T13:01:44.956Z,70.63
2018-01-15T13:04:12.625Z,71.59
2018-01-15T13:06:46.127Z,73.49
2018-01-15T13:09:14.688Z,73.00
2018-01-15T13:11:42.333Z,72.39
2018-01-15T13:14:09.930Z,72.37
2018-01-15T13:16:37.520Z,72.08
2018-01-15T13:19:05.096Z,71.71
2018-01-15T13:21:32.752Z,70.63
2018-01-15T13:24:00.342Z,70.72
2018-01-15T13:26:27.937Z,69.01
2018-01-15T13:28:55.555Z,70.40
2018-01-15T13:31:23.140Z,71.44
2018-01-15T13:33:50.728Z,70.90
2018-01-15T13:36:18.406Z,70.28
2018-01-15T13:38:46.135Z,69.97
2018-01-15T13:41:13.714Z,70.66
2018-01-15T13:43:41.388Z,73.47
2018-01-15T13:46:09.003Z,74.27
2018-01-15T13:48:36.676Z,73.27
2018-01-15T13:51:04.536Z,73.07
2018-01-15T13:53:32.135Z,73.24
2018-01-15T13:55:59.713Z,72.84
2018-01-15T13:58:27.314Z,73.05
2018-01-15T14:00:54.935Z,74.04
2018-01-15T14:03:22.504Z,73.80
2018-01-15T14:05:50.107Z,73.14
2018-01-15T14:08:17.841Z,73.09
2018-01-15T14:10:45.429Z,73.80
2018-01-15T14:13:13.037Z,74.39
2018-01-15T14:15:40.630Z,75.27
2018-01-15T14:18:08.340Z,75.37
2018-01-15T14:20:35.950Z,76.32
2018-01-15T14:23:03.529Z,76.67
2018-01-15T14:25:31.123Z,75.77
2018-01-15T14:27:58.728Z,76.62
2018-01-15T14:30:26.303Z,76.03
2018-01-15T14:32:53.902Z,76.39
2018-01-15T14:35:21.504Z,77.34
2018-01-15T14:37:49.111Z,78.30
2018-01-15T14:40:16.837Z,77.81
2018-01-15T14:42:44.369Z,77.33
2018-01-15T14:45:11.954Z,78.77
2018-01-15T14:47:39.516Z,79.45
2018-01-15T14:50:07.133Z,80.12
2018-01-15T14:52:34.705Z,80.27
2018-01-15T14:55:02.274Z,80.66
2018-01-15T14:57:29.906Z,80.87
2018-01-15T14:59:57.478Z,80.98
2018-01-15T15:02:25.043Z,80.71
2018-01-15T15:04:52.638Z,80.67
2018-01-15T15:07:20.205Z,80.69
2018-01-15T15:09:47.767Z,81.37
2018-01-15T15:12:15.374Z,80.66
2018-01-15T15:14:42.951Z,80.49
2018-01-15T15:17:10.527Z,80.68
2018-01-15T15:19:38.134Z,80.32
2018-01-15T15:22:05.697Z,80.27
2018-01-15T15:24:33.343Z,80.43
2018-01-15T15:27:00.957Z,80.54
2018-01-15T15:29:28.532Z,80.58
2018-01-15T15:31:56.100Z,80.53
2018-01-15T15:34:23.703Z,80.34
2018-01-15T15:36:51.274Z,79.85
2018-01-15T15:39:18.833Z,79.52
2018-01-15T15:41:46.445Z,80.21
2018-01-15T15:44:14.027Z,79.06
2018-01-15T15:46:41.594Z,79.06
2018-01-15T15:49:09.203Z,79.74
2018-01-15T15:51:36.773Z,80.29
2018-01-15T15:54:04.325Z,81.10
2018-01-15T15:56:31.925Z,80.99
2018-01-15T15:58:59.487Z,81.11
2018-01-15T16:01:27.077Z,80.90
2018-01-15T16:03:54.709Z,80.97
2018-01-15T16:06:22.277Z,81.14
2018-01-15T16:08:49.868Z,81.56
2018-01-15T16:11:17.490Z,81.81
2018-01-15T16:13:45.071Z,81.25
2018-01-15T16:16:12.669Z,80.94
2018-01-15T16:18:40.331Z,80.41
2018-01-15T16:21:07.913Z,80.09
2018-01-15T16:23:35.498Z,80.69
2018-01-15T16:26:03.150Z,81.15
2018-01-15T16:28:30.750Z,81.00
2018-01-15T16:30:58.337Z,80.91
2018-01-15T16:33:25.984Z,81.12
2018-01-15T16:35:53.580Z,80.81
2018-01-15T16:38:21.166Z,81.02
2018-01-15T16:40:48.805Z,80.78
2018-01-15T16:43:16.403Z,80.44
2018-01-15T16:45:44.039Z,80.47
2018-01-15T16:48:11.703Z,80.12
2018-01-15T16:50:39.281Z,80.52
2018-01-15T16:53:06.865Z,81.15
2018-01-15T16:55:34.518Z,80.93
2018-01-15T16:58:02.145Z,81.42
2018-01-15T17:00:29.729Z,81.42
2018-01-15T17:02:57.353Z,81.09
2018-01-15T17:05:24.948Z,81.55
2018-01-15T17:07:52.536Z,81.78
2018-01-15T17:10:20.179Z,82.18
2018-01-15T17:12:47.757Z,82.23
2018-01-15T17:15:15.345Z,82.41
2018-01-15T17:17:42.980Z,82.18
2018-01-15T17:20:10.621Z,83.11
2018-01-15T17:22:38.208Z,83.94
2018-01-15T17:25:05.838Z,83.08
2018-01-15T17:27:33.496Z,83.80
2018-01-15T17:30:01.077Z,83.76
2018-01-15T17:32:28.702Z,83.60
2018-01-15T17:34:56.274Z,83.57
2018-01-15T17:37:23.866Z,83.61
2018-01-15T17:39:51.671Z,83.58
2018-01-15T17:42:19.255Z,83.77
2018-01-15T17:44:46.824Z,83.69
2018-01-15T17:47:14.480Z,83.19
2018-01-15T17:49:42.087Z,82.87
2018-01-15T17:52:09.667Z,82.77
2018-01-15T17:54:37.292Z,82.42
2018-01-15T17:57:04.877Z,83.03
2018-01-15T17:59:32.460Z,82.72
2018-01-15T18:02:00.223Z,82.57
2018-01-15T18:04:27.878Z,82.46
2018-01-15T18:06:55.470Z,82.58
2018-01-15T18:09:23.095Z,82.52
2018-01-15T18:11:50.658Z,82.81
2018-01-15T18:14:18.241Z,83.19
2018-01-15T18:16:45.881Z,83.56
2018-01-15T18:19:13.651Z,83.65
2018-01-15T18:21:41.321Z,83.65
2018-01-15T18:24:08.919Z,83.92
2018-01-15T18:26:36.503Z,83.45
2018-01-15T18:29:04.082Z,83.56
2018-01-15T18:31:31.958Z,83.52
2018-01-15T18:33:59.527Z,84.20
2018-01-15T18:36:27.283Z,84.31
2018-01-15T18:38:54.930Z,83.74
2018-01-15T18:41:22.614Z,83.46
2018-01-15T18:43:50.364Z,82.83
2018-01-15T18:46:18.142Z,82.25
2018-01-15T18:48:45.787Z,82.36
2018-01-15T18:51:13.451Z,81.63
2018-01-15T18:53:41.104Z,81.70
2018-01-15T18:56:08.691Z,81.44
2018-01-15T18:58:36.274Z,81.62
2018-01-15T19:01:04.102Z,81.60
2018-01-15T19:03:31.772Z,81.68
2018-01-15T19:05:59.442Z,82.11
2018-01-15T19:08:27.303Z,82.30
2018-01-15T19:10:54.951Z,83.45
2018-01-15T19:13:22.612Z,83.49
2018-01-15T19:15:50.273Z,84.64
2018-01-15T19:18:17.943Z,83.77
2018-01-15T19:20:45.616Z,82.72
2018-01-15T19:23:13.269Z,83.62
2018-01-15T19:25:40.850Z,83.83
2018-01-15T19:28:08.463Z,83.92
2018-01-15T19:30:36.253Z,83.60
2018-01-15T19:33:04.135Z,82.95
2018-01-15T19:38:33.545Z,83.84
2018-01-15T19:41:01.321Z,83.23
2018-01-15T19:43:33.557Z,83.32
2018-01-15T19:46:06.751Z,83.03
2018-01-15T19:48:39.780Z,83.12
2018-01-15T19:51:13.249Z,83.32
2018-01-15T19:53:46.435Z,83.03
2018-01-15T19:56:19.647Z,83.30
2018-01-15T19:58:52.607Z,83.38
2018-01-15T20:01:25.721Z,84.09
2018-01-15T20:07:01.095Z,84.24
2018-01-15T20:12:33.690Z,83.85
2018-01-15T20:15:01.306Z,83.96
2018-01-15T20:17:28.866Z,84.89
2018-01-15T20:19:56.502Z,84.55
2018-01-15T20:22:24.327Z,85.17
2018-01-15T20:24:51.891Z,85.49
2018-01-15T20:27:19.503Z,84.87
2018-01-15T20:29:47.154Z,85.25
2018-01-15T20:32:14.786Z,85.58
2018-01-15T20:34:42.398Z,85.53
2018-01-15T20:37:09.983Z,86.03
2018-01-15T20:39:37.910Z,86.36
2018-01-15T20:42:05.514Z,86.24
2018-01-15T20:44:33.087Z,85.70
2018-01-15T20:47:00.671Z,85.87
2018-01-15T20:49:28.303Z,86.53
2018-01-15T20:51:55.874Z,86.20
2018-01-15T20:54:23.455Z,86.44
2018-01-15T20:56:51.188Z,86.69
2018-01-15T20:59:18.788Z,86.47
2018-01-15T21:01:46.361Z,86.63
2018-01-15T21:04:14.180Z,86.32
2018-01-15T21:06:41.853Z,86.38
2018-01-15T21:09:09.428Z,87.17
2018-01-15T21:11:37.147Z,87.41
2018-01-15T21:14:05.043Z,87.43
2018-01-15T21:16:32.607Z,87.46
2018-01-15T21:19:00.213Z,87.70
2018-01-15T21:21:27.804Z,87.20
2018-01-15T21:23:55.525Z,87.20
2018-01-15T21:26:23.135Z,86.78
2018-01-15T21:28:50.807Z,86.97
2018-01-15T21:31:18.423Z,87.12
2018-01-15T21:33:46.047Z,87.04
2018-01-15T21:36:13.608Z,87.17
2018-01-15T21:38:41.278Z,87.34
2018-01-15T21:41:08.888Z,86.73
2018-01-15T21:43:36.470Z,88.45
2018-01-15T21:46:04.039Z,89.26
2018-01-15T21:48:31.655Z,89.29
2018-01-15T21:50:59.233Z,89.20
2018-01-15T21:53:26.811Z,87.06
2018-01-15T21:55:54.464Z,87.04
2018-01-15T21:58:22.119Z,86.74
2018-01-15T22:00:49.704Z,86.85
2018-01-15T22:03:17.344Z,87.42
2018-01-15T22:05:45.120Z,87.48
2018-01-15T22:08:12.687Z,87.36
2018-01-15T22:10:40.448Z,86.92
2018-01-15T22:13:08.032Z,87.05
2018-01-15T22:15:35.755Z,86.43
2018-01-15T22:18:03.453Z,86.73
2018-01-15T22:20:31.105Z,86.96
2018-01-15T22:22:58.752Z,86.80
2018-01-15T22:25:26.334Z,86.44
2018-01-15T22:27:53.914Z,86.04
2018-01-15T22:30:21.468Z,85.76
2018-01-15T22:32:49.174Z,86.68
2018-01-15T22:35:16.766Z,87.03
2018-01-15T22:37:44.330Z,86.50
2018-01-15T22:40:11.935Z,86.46
2018-01-15T22:42:39.651Z,86.58
2018-01-15T22:45:07.248Z,86.50
2018-01-15T22:47:34.872Z,86.04
2018-01-15T22:50:02.639Z,86.41
2018-01-15T22:52:30.290Z,85.88
2018-01-15T22:54:57.964Z,85.96
2018-01-15T22:57:25.520Z,86.11
2018-01-15T22:59:53.091Z,85.50
2018-01-15T23:02:20.700Z,85.30
2018-01-15T23:04:48.398Z,85.88
2018-01-15T23:07:16.000Z,85.63
2018-01-15T23:09:43.612Z,85.37
2018-01-15T23:12:11.375Z,84.66
2018-01-15T23:14:39.056Z,84.55
2018-01-15T23:17:06.663Z,84.54
2018-01-15T23:19:34.242Z,84.82
2018-01-15T23:22:01.815Z,84.71
2018-01-15T23:24:29.407Z,84.58
2018-01-15T23:26:57.162Z,85.40
2018-01-15T23:29:24.804Z,85.78
2018-01-15T23:31:52.423Z,85.99
2018-01-15T23:34:19.986Z,85.92
2018-01-15T23:36:47.570Z,85.56
2018-01-15T23:39:15.209Z,85.21
2018-01-15T23:41:42.796Z,84.98
2018-01-15T23:44:10.591Z,84.82
2018-01-15T23:46:38.196Z,85.03
2018-01-15T23:49:05.790Z,84.91
2018-01-15T23:51:33.355Z,83.95
2018-01-15T23:54:00.969Z,84.03
2018-01-15T23:56:29.000Z,84.55
2018-01-15T23:58:56.776Z,84.34
